Austin Reinauer — WCX8055 — position and weather

sailwx.info

Track history (hours):
 
Tides and Currents Weather Stations Pressure Air Temp Water Temp Dewpoint Dewpoint Depression Visibility Wind Speed Wind Dir Waves Ship Positions

Austin Reinauer

Owner: REINAUER TRANSPORTATION CO, LP, STATEN ISLAND, NY. More information available from US FCC via Universal Licensing System and Coast Guard Vessel Documentation Center.

Last reported at 2017-Aug-16 18:48 UTC. Time now 2017-Aug-16 21:47 UTC.
Position N 41°14' W 072°10'.

Length 33 m; draft 6.7 m.

Type: . MMSI: 366739920.

Date/timePositionNaut miles runAvg speedWind from/ knotsBaromVisibWave heightAir tempDewpointWater temp
2017-Aug-16 18:48N 41°14' W 072°10'3 7.9
2017-Aug-16 18:23N 41°13' W 072°14'4 8.8
2017-Aug-16 17:53N 41°11' W 072°19'63 9.1
2017-Aug-16 10:54N 40°54' W 073°40'3 8.3
2017-Aug-16 10:30N 40°52' W 073°44'4 8.2
2017-Aug-16 09:59N 40°49' W 073°47'3 6.1
2017-Aug-16 09:30N 40°48' W 073°51'4 7.2
2017-Aug-16 09:00N 40°47' W 073°55'3 7.0
2017-Aug-16 08:30N 40°44' W 073°58'4 8.1
2017-Aug-16 08:00N 40°41' W 074°01'3 5.4
2017-Aug-16 07:30N 40°39' W 074°03'1 1.7
2017-Aug-16 07:00N 40°39' W 074°02'1 1.5
2017-Aug-16 06:30N 40°40' W 074°01'1 1.5
2017-Aug-16 06:00N 40°40' W 074°01'0 0.2
2017-Aug-16 05:30N 40°40' W 074°01'1 1.3
2017-Aug-16 05:00N 40°40' W 074°02'2 4.9
2017-Aug-16 04:30N 40°39' W 074°05'3 6.3
2017-Aug-16 04:00N 40°39' W 074°09'2 4.4
2017-Aug-16 03:30N 40°38' W 074°12'1 1.3
2017-Aug-16 02:57N 40°38' W 074°12'0 0.0
2017-Aug-16 02:30N 40°38' W 074°12'0 0.0
2017-Aug-16 02:00N 40°38' W 074°12'0 0.0
2017-Aug-16 01:30N 40°38' W 074°12'0 0.0
2017-Aug-16 01:00N 40°38' W 074°12'0 0.0
2017-Aug-16 00:30N 40°38' W 074°12'0 0.0
2017-Aug-16 00:00N 40°38' W 074°12'0 0.0
2017-Aug-15 23:18N 40°38' W 074°12'0 0.0
2017-Aug-15 23:00N 40°38' W 074°12'0 0.0
2017-Aug-15 22:24N 40°38' W 074°12'0 0.0
2017-Aug-15 22:00N 40°38' W 074°12'0 0.0
2017-Aug-15 21:30N 40°38' W 074°12'0 0.0
2017-Aug-15 21:00N 40°38' W 074°12'0 0.0
2017-Aug-15 20:28N 40°38' W 074°12'0 0.0
2017-Aug-15 19:58N 40°38' W 074°12'0 0.0
2017-Aug-15 19:28N 40°38' W 074°12'0 0.0
2017-Aug-15 18:58N 40°38' W 074°12'0 0.0
2017-Aug-15 18:28N 40°38' W 074°12'0 0.0
2017-Aug-15 17:58N 40°38' W 074°12'0 0.0
2017-Aug-15 17:28N 40°38' W 074°12'0 0.0
2017-Aug-15 16:58N 40°38' W 074°12'0 0.0
2017-Aug-15 16:28N 40°38' W 074°12'0 0.0
2017-Aug-15 15:58N 40°38' W 074°12'0 0.0
2017-Aug-15 15:25N 40°38' W 074°12'0 0.0
2017-Aug-15 14:55N 40°38' W 074°12'0 0.0
2017-Aug-15 14:22N 40°38' W 074°12'0 0.0
2017-Aug-15 13:58N 40°38' W 074°12'0 0.0
2017-Aug-15 13:28N 40°38' W 074°12'0 0.0
2017-Aug-15 12:58N 40°38' W 074°12'0 0.0
2017-Aug-15 12:16N 40°38' W 074°12'0 0.0
2017-Aug-15 12:00N 40°38' W 074°12'0 0.0
2017-Aug-15 11:30N 40°38' W 074°12'0 0.0
2017-Aug-15 11:00N 40°38' W 074°12'0 0.0
2017-Aug-15 10:29N 40°38' W 074°12'0 0.0
2017-Aug-15 09:59N 40°38' W 074°12'0 0.0
2017-Aug-15 09:29N 40°38' W 074°12'0 0.0
2017-Aug-15 08:59N 40°38' W 074°12'0 0.0
2017-Aug-15 08:26N 40°38' W 074°12'0 0.0
2017-Aug-15 07:59N 40°38' W 074°12'0 0.0
2017-Aug-15 07:11N 40°38' W 074°12'0 0.0
2017-Aug-15 06:59N 40°38' W 074°12'0 0.0
2017-Aug-15 06:20N 40°38' W 074°12'0 0.0
2017-Aug-15 05:56N 40°38' W 074°12'0 0.0
2017-Aug-15 05:23N 40°38' W 074°12'0 0.0
2017-Aug-15 04:50N 40°38' W 074°12'0 0.0
2017-Aug-15 04:29N 40°38' W 074°12'0 0.0
2017-Aug-15 03:59N 40°38' W 074°12'0 0.0
2017-Aug-15 03:29N 40°38' W 074°12'0 0.0
2017-Aug-15 02:56N 40°38' W 074°12'0 0.0
2017-Aug-15 02:29N 40°38' W 074°12'0 0.0
2017-Aug-15 01:59N 40°38' W 074°12'0 0.0
2017-Aug-15 01:29N 40°38' W 074°12'0 0.0
2017-Aug-15 00:59N 40°38' W 074°12'0 0.0
2017-Aug-15 00:29N 40°38' W 074°12'0 0.0
2017-Aug-14 23:59N 40°38' W 074°12'0 0.0
2017-Aug-14 23:29N 40°38' W 074°12'0 0.0
2017-Aug-14 23:00N 40°38' W 074°12'0 0.0
2017-Aug-14 22:30N 40°38' W 074°12'2 3.6
2017-Aug-14 22:00N 40°39' W 074°10'3 5.6
2017-Aug-14 21:30N 40°39' W 074°07'3 5.5
2017-Aug-14 21:00N 40°39' W 074°03'5 9.1
2017-Aug-14 20:30N 40°43' W 073°59'510.0
2017-Aug-14 19:59N 40°47' W 073°55'7 8.4
2017-Aug-14 19:12N 40°49' W 073°47'8 0.2
2017-Aug-12 19:24N 40°55' W 073°39'4 8.2
2017-Aug-12 18:58N 40°53' W 073°43'4 8.3
2017-Aug-12 18:30N 40°50' W 073°46'3 6.4
2017-Aug-12 18:00N 40°48' W 073°50'4 7.8
2017-Aug-12 17:30N 40°47' W 073°55'4 7.8
2017-Aug-12 17:00N 40°44' W 073°58'4 7.9
2017-Aug-12 16:30N 40°41' W 074°01'3 6.8
2017-Aug-12 16:00N 40°39' W 074°05'2 4.8
2017-Aug-12 15:30N 40°39' W 074°08'3 5.3
2017-Aug-12 15:00N 40°39' W 074°11'1 1.6
2017-Aug-12 14:19N 40°38' W 074°12'0 0.0
2017-Aug-12 13:55N 40°38' W 074°12'0 0.5
2017-Aug-12 13:29N 40°38' W 074°12'0 0.1
2017-Aug-12 12:20N 40°38' W 074°12'2 7.2
2017-Aug-12 12:00N 40°39' W 074°09'1 0.7
2017-Aug-12 10:21N 40°38' W 074°08'0 0.0
2017-Aug-12 08:57N 40°38' W 074°08'0 0.0
2017-Aug-12 07:18N 40°38' W 074°08'0 0.0
2017-Aug-12 06:57N 40°38' W 074°08'0 0.0
2017-Aug-12 06:18N 40°38' W 074°08'0 0.0
2017-Aug-12 04:17N 40°38' W 074°08'0 0.0
2017-Aug-12 03:54N 40°38' W 074°08'0 0.0
2017-Aug-12 03:30N 40°38' W 074°08'0 0.0
2017-Aug-12 02:38N 40°38' W 074°08'0 0.0
2017-Aug-11 22:44N 40°38' W 074°08'0 0.0
2017-Aug-11 22:14N 40°38' W 074°08'0 0.0
2017-Aug-11 21:53N 40°38' W 074°08'0 0.0
2017-Aug-11 21:26N 40°38' W 074°08'0 0.0
2017-Aug-11 16:56N 40°38' W 074°08'0 0.3
2017-Aug-11 16:30N 40°39' W 074°08'2 3.5
2017-Aug-11 15:59N 40°39' W 074°05'0 0.0
2017-Aug-11 15:26N 40°39' W 074°05'0 0.0
2017-Aug-11 14:59N 40°39' W 074°05'0 0.0
2017-Aug-11 13:59N 40°39' W 074°05'0 0.0
2017-Aug-11 13:29N 40°39' W 074°05'0 0.0
2017-Aug-11 12:59N 40°39' W 074°05'1 2.9
2017-Aug-11 12:30N 40°39' W 074°07'0 0.6
2017-Aug-11 11:50N 40°38' W 074°08'0 0.0
2017-Aug-11 09:43N 40°38' W 074°08'0 0.0
2017-Aug-11 09:28N 40°38' W 074°08'0 0.0
2017-Aug-11 09:00N 40°38' W 074°08'0 0.0
2017-Aug-11 08:20N 40°38' W 074°08'0 0.0
2017-Aug-11 07:55N 40°38' W 074°08'0 0.0
2017-Aug-11 07:27N 40°38' W 074°08'0 0.0
2017-Aug-11 06:53N 40°38' W 074°08'1 3.0
2017-Aug-11 06:30N 40°39' W 074°09'3 5.2
2017-Aug-11 06:00N 40°38' W 074°12'0 0.2
2017-Aug-11 05:30N 40°38' W 074°12'3 5.3
2017-Aug-11 05:00N 40°39' W 074°09'4 7.8
2017-Aug-11 04:31N 40°39' W 074°04'4 7.9
2017-Aug-11 04:00N 40°42' W 074°00'4 7.2
2017-Aug-11 03:30N 40°45' W 073°58'3 6.4
2017-Aug-11 02:58N 40°48' W 073°55'6 7.9
2017-Aug-11 02:14N 40°48' W 073°47'47 2.1
2017-Aug-10 04:00N 41°13' W 072°54'7 7.9
2017-Aug-10 03:08N 41°08' W 073°01'1 8.1
2017-Aug-10 03:00N 41°08' W 073°02'30 8.5
2017-Aug-09 23:29N 40°55' W 073°38'4 8.6
2017-Aug-09 23:00N 40°53' W 073°43'5 9.2
2017-Aug-09 22:30N 40°49' W 073°47'4 7.0
2017-Aug-09 22:00N 40°48' W 073°51'3 6.7
2017-Aug-09 21:30N 40°47' W 073°55'3 5.8
2017-Aug-09 21:00N 40°45' W 073°58'3 5.3
2017-Aug-09 20:30N 40°42' W 073°59'3 6.3
2017-Aug-09 20:00N 40°40' W 074°02'3 6.6
2017-Aug-09 19:30N 40°39' W 074°06'4 7.5
2017-Aug-09 19:00N 40°39' W 074°11'2 4.7
2017-Aug-09 18:30N 40°36' W 074°12'1 1.8
2017-Aug-09 17:45N 40°35' W 074°13'0 0.0
2017-Aug-09 17:15N 40°35' W 074°13'0 0.0
2017-Aug-09 16:51N 40°35' W 074°13'0 0.0
2017-Aug-09 16:30N 40°35' W 074°13'0 0.0
2017-Aug-09 16:00N 40°35' W 074°13'0 0.0
2017-Aug-09 14:33N 40°35' W 074°13'0 0.1
2017-Aug-09 14:27N 40°35' W 074°13'0 0.0
2017-Aug-09 13:51N 40°35' W 074°13'0 0.0
2017-Aug-09 13:09N 40°35' W 074°13'0 0.0
2017-Aug-09 12:57N 40°35' W 074°13'0 0.0
2017-Aug-09 12:24N 40°35' W 074°13'0 0.0
2017-Aug-09 11:57N 40°35' W 074°13'0 0.0
2017-Aug-09 11:30N 40°35' W 074°13'0 0.0
2017-Aug-09 11:00N 40°35' W 074°13'0 0.0
2017-Aug-09 10:21N 40°35' W 074°13'0 0.0
2017-Aug-09 09:57N 40°35' W 074°13'0 0.0
2017-Aug-09 09:27N 40°35' W 074°13'0 0.0
2017-Aug-09 09:00N 40°35' W 074°13'0 0.0
2017-Aug-09 08:30N 40°35' W 074°13'0 0.0
2017-Aug-09 07:57N 40°35' W 074°13'0 0.0
2017-Aug-09 07:27N 40°35' W 074°13'0 0.0
2017-Aug-09 07:00N 40°35' W 074°13'0 0.0
2017-Aug-09 06:21N 40°35' W 074°13'0 0.0
2017-Aug-09 05:54N 40°35' W 074°13'0 0.0
2017-Aug-09 05:27N 40°35' W 074°13'0 0.0
2017-Aug-09 04:59N 40°35' W 074°13'0 0.0
2017-Aug-09 04:26N 40°35' W 074°13'0 0.0
2017-Aug-09 03:59N 40°35' W 074°13'0 0.0
2017-Aug-09 03:23N 40°35' W 074°13'0 0.0
2017-Aug-09 02:53N 40°35' W 074°13'0 0.0
2017-Aug-09 00:38N 40°35' W 074°13'0 0.0
2017-Aug-09 00:26N 40°35' W 074°13'0 0.0
2017-Aug-08 23:56N 40°35' W 074°13'0 0.0
2017-Aug-08 23:15N 40°35' W 074°13'0 0.0
2017-Aug-08 23:00N 40°35' W 074°13'0 0.0
2017-Aug-08 22:30N 40°35' W 074°13'0 0.0
2017-Aug-08 22:00N 40°35' W 074°13'0 0.0
2017-Aug-08 21:25N 40°35' W 074°13'0 0.0
2017-Aug-08 20:59N 40°35' W 074°13'0 0.0
2017-Aug-08 20:30N 40°35' W 074°13'0 0.0
2017-Aug-08 20:00N 40°35' W 074°13'0 0.0
2017-Aug-08 19:30N 40°35' W 074°13'0 0.0
2017-Aug-08 19:00N 40°35' W 074°13'0 0.0
2017-Aug-08 18:30N 40°35' W 074°13'0 0.0
2017-Aug-08 17:57N 40°35' W 074°13'0 0.0
2017-Aug-08 17:30N 40°35' W 074°13'0 0.0
2017-Aug-08 16:59N 40°35' W 074°13'0 0.3
2017-Aug-08 16:30N 40°35' W 074°13'3 5.5
2017-Aug-08 16:00N 40°38' W 074°12'4 7.4
2017-Aug-08 15:31N 40°39' W 074°07'2 3.8
2017-Aug-08 15:01N 40°39' W 074°05'2 3.4
2017-Aug-08 14:30N 40°39' W 074°03'0 0.1
2017-Aug-08 13:58N 40°39' W 074°03'0 0.1
2017-Aug-08 13:28N 40°39' W 074°03'0 0.1
2017-Aug-08 12:58N 40°39' W 074°03'0 0.2
2017-Aug-08 12:28N 40°39' W 074°03'1 3.2
2017-Aug-08 12:00N 40°41' W 074°02'4 7.4
2017-Aug-08 11:30N 40°43' W 073°58'3 6.8
2017-Aug-08 11:00N 40°46' W 073°57'5 6.9
2017-Aug-08 10:19N 40°48' W 073°51'3 8.3
2017-Aug-08 09:59N 40°48' W 073°47'  
Track history (hours):
 
Tides and Currents Weather Stations Pressure Air Temp Water Temp Dewpoint Dewpoint Depression Visibility Wind Speed Wind Dir Waves Ship Positions

Austin Reinauer

Owner: REINAUER TRANSPORTATION CO, LP, STATEN ISLAND, NY. More information available from US FCC via Universal Licensing System and Coast Guard Vessel Documentation Center.

Last reported at 2017-Aug-16 18:48 UTC. Time now 2017-Aug-16 21:47 UTC.
Position N 41°14' W 072°10'.

Length 33 m; draft 6.7 m.

Type: . MMSI: 366739920.

Date/timePositionNaut miles runAvg speedWind from/ knotsBaromVisibWave heightAir tempDewpointWater temp
2017-Aug-16 18:48N 41°14' W 072°10'3 7.9
2017-Aug-16 18:23N 41°13' W 072°14'4 8.8
2017-Aug-16 17:53N 41°11' W 072°19'63 9.1
2017-Aug-16 10:54N 40°54' W 073°40'3 8.3
2017-Aug-16 10:30N 40°52' W 073°44'4 8.2
2017-Aug-16 09:59N 40°49' W 073°47'3 6.1
2017-Aug-16 09:30N 40°48' W 073°51'4 7.2
2017-Aug-16 09:00N 40°47' W 073°55'3 7.0
2017-Aug-16 08:30N 40°44' W 073°58'4 8.1
2017-Aug-16 08:00N 40°41' W 074°01'3 5.4
2017-Aug-16 07:30N 40°39' W 074°03'1 1.7
2017-Aug-16 07:00N 40°39' W 074°02'1 1.5
2017-Aug-16 06:30N 40°40' W 074°01'1 1.5
2017-Aug-16 06:00N 40°40' W 074°01'0 0.2
2017-Aug-16 05:30N 40°40' W 074°01'1 1.3
2017-Aug-16 05:00N 40°40' W 074°02'2 4.9
2017-Aug-16 04:30N 40°39' W 074°05'3 6.3
2017-Aug-16 04:00N 40°39' W 074°09'2 4.4
2017-Aug-16 03:30N 40°38' W 074°12'1 1.3
2017-Aug-16 02:57N 40°38' W 074°12'0 0.0
2017-Aug-16 02:30N 40°38' W 074°12'0 0.0
2017-Aug-16 02:00N 40°38' W 074°12'0 0.0
2017-Aug-16 01:30N 40°38' W 074°12'0 0.0
2017-Aug-16 01:00N 40°38' W 074°12'0 0.0
2017-Aug-16 00:30N 40°38' W 074°12'0 0.0
2017-Aug-16 00:00N 40°38' W 074°12'0 0.0
2017-Aug-15 23:18N 40°38' W 074°12'0 0.0
2017-Aug-15 23:00N 40°38' W 074°12'0 0.0
2017-Aug-15 22:24N 40°38' W 074°12'0 0.0
2017-Aug-15 22:00N 40°38' W 074°12'0 0.0
2017-Aug-15 21:30N 40°38' W 074°12'0 0.0
2017-Aug-15 21:00N 40°38' W 074°12'0 0.0
2017-Aug-15 20:28N 40°38' W 074°12'0 0.0
2017-Aug-15 19:58N 40°38' W 074°12'0 0.0
2017-Aug-15 19:28N 40°38' W 074°12'0 0.0
2017-Aug-15 18:58N 40°38' W 074°12'0 0.0
2017-Aug-15 18:28N 40°38' W 074°12'0 0.0
2017-Aug-15 17:58N 40°38' W 074°12'0 0.0
2017-Aug-15 17:28N 40°38' W 074°12'0 0.0
2017-Aug-15 16:58N 40°38' W 074°12'0 0.0
2017-Aug-15 16:28N 40°38' W 074°12'0 0.0
2017-Aug-15 15:58N 40°38' W 074°12'0 0.0
2017-Aug-15 15:25N 40°38' W 074°12'0 0.0
2017-Aug-15 14:55N 40°38' W 074°12'0 0.0
2017-Aug-15 14:22N 40°38' W 074°12'0 0.0
2017-Aug-15 13:58N 40°38' W 074°12'0 0.0
2017-Aug-15 13:28N 40°38' W 074°12'0 0.0
2017-Aug-15 12:58N 40°38' W 074°12'0 0.0
2017-Aug-15 12:16N 40°38' W 074°12'0 0.0
2017-Aug-15 12:00N 40°38' W 074°12'0 0.0
2017-Aug-15 11:30N 40°38' W 074°12'0 0.0
2017-Aug-15 11:00N 40°38' W 074°12'0 0.0
2017-Aug-15 10:29N 40°38' W 074°12'0 0.0
2017-Aug-15 09:59N 40°38' W 074°12'0 0.0
2017-Aug-15 09:29N 40°38' W 074°12'0 0.0
2017-Aug-15 08:59N 40°38' W 074°12'0 0.0
2017-Aug-15 08:26N 40°38' W 074°12'0 0.0
2017-Aug-15 07:59N 40°38' W 074°12'0 0.0
2017-Aug-15 07:11N 40°38' W 074°12'0 0.0
2017-Aug-15 06:59N 40°38' W 074°12'0 0.0
2017-Aug-15 06:20N 40°38' W 074°12'0 0.0
2017-Aug-15 05:56N 40°38' W 074°12'0 0.0
2017-Aug-15 05:23N 40°38' W 074°12'0 0.0
2017-Aug-15 04:50N 40°38' W 074°12'0 0.0
2017-Aug-15 04:29N 40°38' W 074°12'0 0.0
2017-Aug-15 03:59N 40°38' W 074°12'0 0.0
2017-Aug-15 03:29N 40°38' W 074°12'0 0.0
2017-Aug-15 02:56N 40°38' W 074°12'0 0.0
2017-Aug-15 02:29N 40°38' W 074°12'0 0.0
2017-Aug-15 01:59N 40°38' W 074°12'0 0.0
2017-Aug-15 01:29N 40°38' W 074°12'0 0.0
2017-Aug-15 00:59N 40°38' W 074°12'0 0.0
2017-Aug-15 00:29N 40°38' W 074°12'0 0.0
2017-Aug-14 23:59N 40°38' W 074°12'0 0.0
2017-Aug-14 23:29N 40°38' W 074°12'0 0.0
2017-Aug-14 23:00N 40°38' W 074°12'0 0.0
2017-Aug-14 22:30N 40°38' W 074°12'2 3.6
2017-Aug-14 22:00N 40°39' W 074°10'3 5.6
2017-Aug-14 21:30N 40°39' W 074°07'3 5.5
2017-Aug-14 21:00N 40°39' W 074°03'5 9.1
2017-Aug-14 20:30N 40°43' W 073°59'510.0
2017-Aug-14 19:59N 40°47' W 073°55'7 8.4
2017-Aug-14 19:12N 40°49' W 073°47'8 0.2
2017-Aug-12 19:24N 40°55' W 073°39'4 8.2
2017-Aug-12 18:58N 40°53' W 073°43'4 8.3
2017-Aug-12 18:30N 40°50' W 073°46'3 6.4
2017-Aug-12 18:00N 40°48' W 073°50'4 7.8
2017-Aug-12 17:30N 40°47' W 073°55'4 7.8
2017-Aug-12 17:00N 40°44' W 073°58'4 7.9
2017-Aug-12 16:30N 40°41' W 074°01'3 6.8
2017-Aug-12 16:00N 40°39' W 074°05'2 4.8
2017-Aug-12 15:30N 40°39' W 074°08'3 5.3
2017-Aug-12 15:00N 40°39' W 074°11'1 1.6
2017-Aug-12 14:19N 40°38' W 074°12'0 0.0
2017-Aug-12 13:55N 40°38' W 074°12'0 0.5
2017-Aug-12 13:29N 40°38' W 074°12'0 0.1
2017-Aug-12 12:20N 40°38' W 074°12'2 7.2
2017-Aug-12 12:00N 40°39' W 074°09'1 0.7
2017-Aug-12 10:21N 40°38' W 074°08'0 0.0
2017-Aug-12 08:57N 40°38' W 074°08'0 0.0
2017-Aug-12 07:18N 40°38' W 074°08'0 0.0
2017-Aug-12 06:57N 40°38' W 074°08'0 0.0
2017-Aug-12 06:18N 40°38' W 074°08'0 0.0
2017-Aug-12 04:17N 40°38' W 074°08'0 0.0
2017-Aug-12 03:54N 40°38' W 074°08'0 0.0
2017-Aug-12 03:30N 40°38' W 074°08'0 0.0
2017-Aug-12 02:38N 40°38' W 074°08'0 0.0
2017-Aug-11 22:44N 40°38' W 074°08'0 0.0
2017-Aug-11 22:14N 40°38' W 074°08'0 0.0
2017-Aug-11 21:53N 40°38' W 074°08'0 0.0
2017-Aug-11 21:26N 40°38' W 074°08'0 0.0
2017-Aug-11 16:56N 40°38' W 074°08'0 0.3
2017-Aug-11 16:30N 40°39' W 074°08'2 3.5
2017-Aug-11 15:59N 40°39' W 074°05'0 0.0
2017-Aug-11 15:26N 40°39' W 074°05'0 0.0
2017-Aug-11 14:59N 40°39' W 074°05'0 0.0
2017-Aug-11 13:59N 40°39' W 074°05'0 0.0
2017-Aug-11 13:29N 40°39' W 074°05'0 0.0
2017-Aug-11 12:59N 40°39' W 074°05'1 2.9
2017-Aug-11 12:30N 40°39' W 074°07'0 0.6
2017-Aug-11 11:50N 40°38' W 074°08'0 0.0
2017-Aug-11 09:43N 40°38' W 074°08'0 0.0
2017-Aug-11 09:28N 40°38' W 074°08'0 0.0
2017-Aug-11 09:00N 40°38' W 074°08'0 0.0
2017-Aug-11 08:20N 40°38' W 074°08'0 0.0
2017-Aug-11 07:55N 40°38' W 074°08'0 0.0
2017-Aug-11 07:27N 40°38' W 074°08'0 0.0
2017-Aug-11 06:53N 40°38' W 074°08'1 3.0
2017-Aug-11 06:30N 40°39' W 074°09'3 5.2
2017-Aug-11 06:00N 40°38' W 074°12'0 0.2
2017-Aug-11 05:30N 40°38' W 074°12'3 5.3
2017-Aug-11 05:00N 40°39' W 074°09'4 7.8
2017-Aug-11 04:31N 40°39' W 074°04'4 7.9
2017-Aug-11 04:00N 40°42' W 074°00'4 7.2
2017-Aug-11 03:30N 40°45' W 073°58'3 6.4
2017-Aug-11 02:58N 40°48' W 073°55'6 7.9
2017-Aug-11 02:14N 40°48' W 073°47'47 2.1
2017-Aug-10 04:00N 41°13' W 072°54'7 7.9
2017-Aug-10 03:08N 41°08' W 073°01'1 8.1
2017-Aug-10 03:00N 41°08' W 073°02'30 8.5
2017-Aug-09 23:29N 40°55' W 073°38'4 8.6
2017-Aug-09 23:00N 40°53' W 073°43'5 9.2
2017-Aug-09 22:30N 40°49' W 073°47'4 7.0
2017-Aug-09 22:00N 40°48' W 073°51'3 6.7
2017-Aug-09 21:30N 40°47' W 073°55'3 5.8
2017-Aug-09 21:00N 40°45' W 073°58'3 5.3
2017-Aug-09 20:30N 40°42' W 073°59'3 6.3
2017-Aug-09 20:00N 40°40' W 074°02'3 6.6
2017-Aug-09 19:30N 40°39' W 074°06'4 7.5
2017-Aug-09 19:00N 40°39' W 074°11'2 4.7
2017-Aug-09 18:30N 40°36' W 074°12'1 1.8
2017-Aug-09 17:45N 40°35' W 074°13'0 0.0
2017-Aug-09 17:15N 40°35' W 074°13'0 0.0
2017-Aug-09 16:51N 40°35' W 074°13'0 0.0
2017-Aug-09 16:30N 40°35' W 074°13'0 0.0
2017-Aug-09 16:00N 40°35' W 074°13'0 0.0
2017-Aug-09 14:33N 40°35' W 074°13'0 0.1
2017-Aug-09 14:27N 40°35' W 074°13'0 0.0
2017-Aug-09 13:51N 40°35' W 074°13'0 0.0
2017-Aug-09 13:09N 40°35' W 074°13'0 0.0
2017-Aug-09 12:57N 40°35' W 074°13'0 0.0
2017-Aug-09 12:24N 40°35' W 074°13'0 0.0
2017-Aug-09 11:57N 40°35' W 074°13'0 0.0
2017-Aug-09 11:30N 40°35' W 074°13'0 0.0
2017-Aug-09 11:00N 40°35' W 074°13'0 0.0
2017-Aug-09 10:21N 40°35' W 074°13'0 0.0
2017-Aug-09 09:57N 40°35' W 074°13'0 0.0
2017-Aug-09 09:27N 40°35' W 074°13'0 0.0
2017-Aug-09 09:00N 40°35' W 074°13'0 0.0
2017-Aug-09 08:30N 40°35' W 074°13'0 0.0
2017-Aug-09 07:57N 40°35' W 074°13'0 0.0
2017-Aug-09 07:27N 40°35' W 074°13'0 0.0
2017-Aug-09 07:00N 40°35' W 074°13'0 0.0
2017-Aug-09 06:21N 40°35' W 074°13'0 0.0
2017-Aug-09 05:54N 40°35' W 074°13'0 0.0
2017-Aug-09 05:27N 40°35' W 074°13'0 0.0
2017-Aug-09 04:59N 40°35' W 074°13'0 0.0
2017-Aug-09 04:26N 40°35' W 074°13'0 0.0
2017-Aug-09 03:59N 40°35' W 074°13'0 0.0
2017-Aug-09 03:23N 40°35' W 074°13'0 0.0
2017-Aug-09 02:53N 40°35' W 074°13'0 0.0
2017-Aug-09 00:38N 40°35' W 074°13'0 0.0
2017-Aug-09 00:26N 40°35' W 074°13'0 0.0
2017-Aug-08 23:56N 40°35' W 074°13'0 0.0
2017-Aug-08 23:15N 40°35' W 074°13'0 0.0
2017-Aug-08 23:00N 40°35' W 074°13'0 0.0
2017-Aug-08 22:30N 40°35' W 074°13'0 0.0
2017-Aug-08 22:00N 40°35' W 074°13'0 0.0
2017-Aug-08 21:25N 40°35' W 074°13'0 0.0
2017-Aug-08 20:59N 40°35' W 074°13'0 0.0
2017-Aug-08 20:30N 40°35' W 074°13'0 0.0
2017-Aug-08 20:00N 40°35' W 074°13'0 0.0
2017-Aug-08 19:30N 40°35' W 074°13'0 0.0
2017-Aug-08 19:00N 40°35' W 074°13'0 0.0
2017-Aug-08 18:30N 40°35' W 074°13'0 0.0
2017-Aug-08 17:57N 40°35' W 074°13'0 0.0
2017-Aug-08 17:30N 40°35' W 074°13'0 0.0
2017-Aug-08 16:59N 40°35' W 074°13'0 0.3
2017-Aug-08 16:30N 40°35' W 074°13'3 5.5
2017-Aug-08 16:00N 40°38' W 074°12'4 7.4
2017-Aug-08 15:31N 40°39' W 074°07'2 3.8
2017-Aug-08 15:01N 40°39' W 074°05'2 3.4
2017-Aug-08 14:30N 40°39' W 074°03'0 0.1
2017-Aug-08 13:58N 40°39' W 074°03'0 0.1
2017-Aug-08 13:28N 40°39' W 074°03'0 0.1
2017-Aug-08 12:58N 40°39' W 074°03'0 0.2
2017-Aug-08 12:28N 40°39' W 074°03'1 3.2
2017-Aug-08 12:00N 40°41' W 074°02'4 7.4
2017-Aug-08 11:30N 40°43' W 073°58'3 6.8
2017-Aug-08 11:00N 40°46' W 073°57'5 6.9
2017-Aug-08 10:19N 40°48' W 073°51'3 8.3
2017-Aug-08 09:59N 40°48' W 073°47'  

Dump ship's entire track history